• Join FlightAware (Why Join?)
  • Login
  • US Flag 
10:34PM EDT


 

Airport Tracker/Info


-or-


 

Live Flight TrackerFlight Track Log ✈ AWE3417 ✈ 02-May-2013 ✈ KMHT - KDCA

Flight Track Log - Related Links

Times and Time Zones

All times are in EDT time to prevent confusion due to time zone crossing. See the AWE3417 flight status page for this flight to view local times or setup timezone preferences in your user account.

Time Position Orientation Groundspeed Altitude Reporting Facility
EDT Latitude Longitude Course Direction KTS MPH feet Rate Location/Type
05:11PM 42.9500 -71.4167 202° Southwest 133 153 1,300  Level KA90
05:12PM 42.9753 -71.4128 North 193 222 2,400 1,860 Climbing Boston Center
05:13PM 43.0000 -71.3667 54° Northeast 211 243 4,000 2,640 Climbing KA90
05:14PM 43.0547 -71.0859 65° Northeast  Level FlightAware Approximate
05:15PM 43.0712 -70.9651 132° Southeast  Level FlightAware Approximate
05:15PM 43.0517 -71.1500 72° East 274 315 10,400  Level Boston Center
05:16PM 42.9961 -70.8794 144° Southeast  Level FlightAware Approximate
05:16PM 43.0775 -71.0444 71° East 285 328 13,200  Level Boston Center
05:17PM 42.9069 -70.9092 202° Southwest  Level FlightAware Approximate
05:17PM 43.0364 -70.9344 117° Southeast 286 329 16,500  Level Boston Center
05:18PM 42.9422 -70.9000 165° South 272 313 17,900 1,620 Climbing Boston Center
05:19PM 42.8428 -70.9478 199° South 331 381 19,800 1,800 Climbing Boston Center
05:20PM 42.7517 -70.9953 201° Southwest 382 440 21,600 2,220 Climbing Boston Center
05:21PM 42.6131 -71.0661 201° Southwest 428 493 24,300 2,400 Climbing Boston Center
05:22PM 42.4783 -71.1339 200° South 463 533 26,400 1,800 Climbing Boston Center
05:23PM 42.3942 -71.2508 226° Southwest 441 507 28,000 1,500 Climbing Boston Center
05:24PM 42.3353 -71.3953 241° Southwest 431 496 29,500 1,260 Climbing Boston Center
05:25PM 42.2697 -71.5394 238° Southwest 443 510 30,600 960 Climbing Boston Center
05:26PM 42.2019 -71.6694 235° Southwest 457 526 31,500 660 Climbing Boston Center
05:27PM 42.1339 -71.8158 238° Southwest 468 539 32,000 240 Climbing Boston Center
05:28PM 42.0578 -71.9758 237° Southwest 473 544 32,000  Level Boston Center
05:29PM 41.9894 -72.1189 237° Southwest 473 544 32,000  Level Boston Center
05:30PM 41.9189 -72.2672 237° Southwest 468 539 32,000  Level Boston Center
05:31PM 41.8503 -72.4122 238° Southwest 468 539 32,000  Level Boston Center
05:32PM 41.7814 -72.5514 236° Southwest 463 533 32,000  Level Boston Center
05:33PM 41.7144 -72.6958 238° Southwest 463 533 32,000  Level Boston Center
05:34PM 41.6453 -72.8372 237° Southwest 463 533 32,000  Level Boston Center
05:35PM 41.5781 -72.9756 237° Southwest 458 527 32,000  Level Boston Center
05:37PM 41.4372 -73.2703 238° Southwest 453 521 32,000  Level New York Center
05:38PM 41.3697 -73.4058 236° Southwest 453 521 32,000  Level New York Center
05:39PM 41.2997 -73.5439 236° Southwest 453 521 32,000  Level New York Center
05:40PM 41.2278 -73.6789 235° Southwest 453 521 32,000  Level New York Center
05:41PM 41.1497 -73.8078 231° Southwest 453 521 32,000  Level New York Center
05:42PM 41.0733 -73.9392 232° Southwest 458 527 32,000 -540 Level New York Center
05:43PM 40.9947 -74.0672 231° Southwest 458 527 31,000 -1,260 Descending New York Center
05:44PM 40.9053 -74.2086 230° Southwest 458 527 29,500 -1,440 Descending New York Center
05:45PM 40.8308 -74.3308 231° Southwest 453 521 28,200 -780 Descending New York Center
05:46PM 40.7606 -74.4531 233° Southwest 441 507 28,000 -120 Descending New York Center
05:47PM 40.6858 -74.5722 230° Southwest 436 502 28,000  Level New York Center
05:48PM 40.6131 -74.6939 232° Southwest 431 496 28,000 -660 Level New York Center
05:49PM 40.5364 -74.8097 229° Southwest 431 496 26,800 -1,740 Descending New York Center
05:50PM 40.4572 -74.9225 227° Southwest 426 490 24,600 -2,280 Descending New York Center
05:51PM 40.3828 -75.0297 228° Southwest 421 484 22,300 -2,280 Descending New York Center
05:52PM 40.3081 -75.1339 227° Southwest 409 471 20,100 -1,200 Descending New York Center
05:53PM 40.2375 -75.2328 227° Southwest 393 452 20,000 -60 Descending New York Center
05:54PM 40.1647 -75.3367 228° Southwest 388 447 20,000  Level New York Center
05:55PM 40.0922 -75.4350 226° Southwest 388 447 20,000  Level New York Center
05:56PM 40.0194 -75.5361 227° Southwest 388 447 20,000  Level New York Center
05:57PM 39.9531 -75.6289 227° Southwest 388 447 20,000  Level New York Center
05:58PM 39.8858 -75.7381 231° Southwest 388 447 20,000 -240 Level New York Center
05:59PM 39.8247 -75.8553 236° Southwest 394 453 19,600 -720 Descending New York Center
06:00PM 39.7656 -75.9697 236° Southwest 394 453 18,600 -960 Descending New York Center
06:01PM 39.7061 -76.0842 236° Southwest 388 447 17,700 -1,620 Descending New York Center
06:02PM 39.6403 -76.2033 234° Southwest 382 440 15,400 -1,740 Descending New York Center
06:03PM 39.5836 -76.3011 233° Southwest 377 434 14,300 -1,380 Descending New York Center
06:04PM 39.4833 -76.3833 212° Southwest 360 414 12,600 -1,140 Descending Potomac TRACON
06:05PM 39.4000 -76.4500 212° Southwest 348 400 12,000 -360 Descending Potomac TRACON
06:06PM 39.3333 -76.5167 218° Southwest 314 361 12,000 -840 Level Potomac TRACON
06:07PM 39.2500 -76.5833 212° Southwest 308 354 10,400 -960 Descending Potomac TRACON
06:08PM 39.1833 -76.6500 218° Southwest 296 341 10,000 -240 Descending Potomac TRACON
06:09PM 39.1333 -76.7167 226° Southwest 299 344 10,000 -60 Level Potomac TRACON
06:10PM 39.0667 -76.7833 218° Southwest 259 298 9,900 -600 Descending Potomac TRACON
06:11PM 39.0167 -76.8500 226° Southwest 246 283 8,800 -960 Descending Potomac TRACON
06:12PM 38.9667 -76.9000 218° Southwest 245 282 8,000 -900 Descending Potomac TRACON
06:13PM 38.9667 -76.9833 270° West 241 277 7,100 -1,020 Descending Potomac TRACON
06:14PM 39.0000 -77.0667 297° West 234 269 6,000 -600 Descending Potomac TRACON
06:15PM 39.0500 -77.1167 322° Northwest 226 260 6,000 -480 Level Potomac TRACON
06:16PM 39.0667 -77.1667 293° West 199 229 5,200 -960 Descending Potomac TRACON
06:17PM 39.0500 -77.2333 252° West 191 220 4,200 -1,140 Descending Potomac TRACON
06:18PM 39.0167 -77.2167 159° South 167 192 3,000 -660 Descending Potomac TRACON
06:19PM 38.9667 -77.1667 142° Southeast 171 197 2,900 -120 Descending Potomac TRACON